createdAt,value
2023-05-20T00:00:53.949Z,2.70
2023-05-20T00:03:20.959Z,3.13
2023-05-20T00:05:47.855Z,2.93
2023-05-20T00:08:14.927Z,2.53
2023-05-20T00:10:41.629Z,3.90
2023-05-20T00:13:09.831Z,2.70
2023-05-20T00:15:37.047Z,3.10
2023-05-20T00:18:04.505Z,2.60
2023-05-20T00:20:31.323Z,2.40
2023-05-20T00:22:58.020Z,2.93
2023-05-20T00:25:24.709Z,3.10
2023-05-20T00:27:52.465Z,3.33
2023-05-20T00:30:20.599Z,2.90
2023-05-20T00:32:47.743Z,2.90
2023-05-20T00:35:14.438Z,2.30
2023-05-20T00:37:41.180Z,2.40
2023-05-20T00:40:08.741Z,2.80
2023-05-20T00:42:35.454Z,2.57
2023-05-20T00:45:02.172Z,2.70
2023-05-20T00:47:33.405Z,2.80
2023-05-20T00:50:00.886Z,3.17
2023-05-20T00:52:31.264Z,2.90
2023-05-20T00:54:58.820Z,3.10
2023-05-20T00:57:25.807Z,3.03
2023-05-20T00:59:52.742Z,3.80
2023-05-20T01:02:20.237Z,3.33
2023-05-20T01:04:48.925Z,3.33
2023-05-20T01:07:17.308Z,2.60
2023-05-20T01:09:44.476Z,3.30
2023-05-20T01:12:15.959Z,4.10
2023-05-20T01:14:48.788Z,2.60
2023-05-20T01:17:16.009Z,3.80
2023-05-20T01:19:44.314Z,2.90
2023-05-20T01:22:13.962Z,3.80
2023-05-20T01:24:43.224Z,2.63
2023-05-20T01:27:10.623Z,3.40
2023-05-20T01:29:37.874Z,3.40
2023-05-20T01:32:09.430Z,3.27
2023-05-20T01:34:37.418Z,4.03
2023-05-20T01:37:05.181Z,4.73
2023-05-20T01:39:34.008Z,3.70
2023-05-20T01:42:03.405Z,3.23
2023-05-20T01:44:30.525Z,3.33
2023-05-20T01:46:57.355Z,3.20
2023-05-20T01:49:24.247Z,3.37
2023-05-20T01:51:50.971Z,3.77
2023-05-20T01:54:17.698Z,3.10
2023-05-20T01:56:45.907Z,3.83
2023-05-20T01:59:13.956Z,2.67
2023-05-20T02:01:40.904Z,3.57
2023-05-20T02:04:07.627Z,3.00
2023-05-20T02:06:34.411Z,3.27
2023-05-20T02:09:01.141Z,3.87
2023-05-20T02:11:28.658Z,3.70
2023-05-20T02:13:55.899Z,3.20
2023-05-20T02:16:24.015Z,3.53
2023-05-20T02:18:50.875Z,4.47
2023-05-20T02:21:17.583Z,2.83
2023-05-20T02:23:44.330Z,3.57
2023-05-20T02:26:11.119Z,3.33
2023-05-20T02:28:37.870Z,3.30
2023-05-20T02:31:04.585Z,3.70
2023-05-20T02:33:32.688Z,3.10
2023-05-20T02:35:59.499Z,2.87
2023-05-20T02:38:26.175Z,3.63
2023-05-20T02:40:52.942Z,3.77
2023-05-20T02:43:19.624Z,3.60
2023-05-20T02:45:46.996Z,3.97
2023-05-20T02:48:13.874Z,3.80
2023-05-20T02:50:42.220Z,4.00
2023-05-20T02:53:09.104Z,4.10
2023-05-20T02:55:36.096Z,3.57
2023-05-20T02:58:03.008Z,4.00
2023-05-20T03:00:29.820Z,3.63
2023-05-20T03:02:56.535Z,4.10
2023-05-20T03:05:23.373Z,4.27
2023-05-20T03:07:51.375Z,3.07
2023-05-20T03:10:18.089Z,4.20
2023-05-20T03:12:44.757Z,3.70
2023-05-20T03:15:11.640Z,3.70
2023-05-20T03:17:38.384Z,4.57
2023-05-20T03:20:06.173Z,3.33
2023-05-20T03:22:32.911Z,3.63
2023-05-20T03:25:00.908Z,3.63
2023-05-20T03:27:27.597Z,4.17
2023-05-20T03:29:54.309Z,3.53
2023-05-20T03:32:21.293Z,3.90
2023-05-20T03:34:48.034Z,4.03
2023-05-20T03:37:14.704Z,3.80
2023-05-20T03:39:41.390Z,3.57
2023-05-20T03:42:09.423Z,3.87
2023-05-20T03:44:36.100Z,4.70
2023-05-20T03:47:02.959Z,4.40
2023-05-20T03:49:29.681Z,4.00
2023-05-20T03:51:56.396Z,3.90
2023-05-20T03:54:23.078Z,4.10
2023-05-20T03:56:49.815Z,4.80
2023-05-20T03:59:18.653Z,4.40
2023-05-20T04:01:45.482Z,4.80
2023-05-20T04:04:12.392Z,4.73
2023-05-20T04:06:39.187Z,4.60
2023-05-20T04:09:05.911Z,4.33
2023-05-20T04:11:32.704Z,4.67
2023-05-20T04:13:59.371Z,4.90
2023-05-20T04:16:27.533Z,4.40
2023-05-20T04:18:54.347Z,4.63
2023-05-20T04:21:21.174Z,4.93
2023-05-20T04:23:48.024Z,4.87
2023-05-20T04:26:14.733Z,4.90
2023-05-20T04:28:41.456Z,3.00
2023-05-20T04:31:08.476Z,4.90
2023-05-20T04:33:36.855Z,4.90
2023-05-20T04:36:03.845Z,4.77
2023-05-20T04:38:30.678Z,4.50
2023-05-20T04:40:57.392Z,4.63
2023-05-20T04:43:24.465Z,4.83
2023-05-20T04:45:51.193Z,2.40
2023-05-20T04:48:17.884Z,4.00
2023-05-20T04:50:45.888Z,4.33
2023-05-20T04:53:12.573Z,4.30
2023-05-20T04:55:39.279Z,4.53
2023-05-20T04:58:05.981Z,5.10
2023-05-20T05:00:32.721Z,4.70
2023-05-20T05:02:59.600Z,4.10
2023-05-20T05:05:26.280Z,5.87
2023-05-20T05:07:54.332Z,4.30
2023-05-20T05:10:21.136Z,5.37
2023-05-20T05:12:47.812Z,5.17
2023-05-20T05:15:14.655Z,4.93
2023-05-20T05:17:41.388Z,4.90
2023-05-20T05:20:09.600Z,4.63
2023-05-20T05:22:36.305Z,4.90
2023-05-20T05:25:04.757Z,4.93
2023-05-20T05:27:31.440Z,4.80
2023-05-20T05:29:58.130Z,4.47
2023-05-20T05:32:25.181Z,5.30
2023-05-20T05:34:52.029Z,6.97
2023-05-20T05:37:18.904Z,5.00
2023-05-20T05:39:45.684Z,5.30
2023-05-20T05:42:13.725Z,4.77
2023-05-20T05:44:40.404Z,4.87
2023-05-20T05:47:07.198Z,5.33
2023-05-20T05:49:34.352Z,4.90
2023-05-20T05:52:01.012Z,5.50
2023-05-20T05:54:27.727Z,5.80
2023-05-20T05:56:54.936Z,4.60
2023-05-20T05:59:23.159Z,4.73
2023-05-20T06:01:49.897Z,5.63
2023-05-20T06:04:16.657Z,6.00
2023-05-20T06:06:43.408Z,6.20
2023-05-20T06:09:10.104Z,5.53
2023-05-20T06:11:36.869Z,7.27
2023-05-20T06:14:03.605Z,4.77
2023-05-20T06:16:31.688Z,5.70
2023-05-20T06:18:59.220Z,7.37
2023-05-20T06:21:27.663Z,5.33
2023-05-20T06:23:54.409Z,7.00
2023-05-20T06:26:21.077Z,6.80
2023-05-20T06:28:47.775Z,5.83
2023-05-20T06:31:14.508Z,6.90
2023-05-20T06:33:42.506Z,5.30
2023-05-20T06:36:09.342Z,5.83
2023-05-20T06:38:36.039Z,6.50
2023-05-20T06:41:03.008Z,5.47
2023-05-20T06:43:29.752Z,7.00
2023-05-20T06:45:56.492Z,6.33
2023-05-20T06:48:23.394Z,6.43
2023-05-20T06:50:51.606Z,6.33
2023-05-20T06:53:18.289Z,6.37
2023-05-20T06:55:45.048Z,6.13
2023-05-20T06:58:11.752Z,6.20
2023-05-20T07:00:38.431Z,6.20
2023-05-20T07:03:05.328Z,5.50
2023-05-20T07:05:32.317Z,5.60
2023-05-20T07:08:00.477Z,5.80
2023-05-20T07:10:27.256Z,5.93
2023-05-20T07:12:53.990Z,5.40
2023-05-20T07:15:20.703Z,4.30
2023-05-20T07:17:47.447Z,5.87
2023-05-20T07:20:14.255Z,5.77
2023-05-20T07:22:41.059Z,5.50
2023-05-20T07:25:09.905Z,5.80
2023-05-20T07:27:36.662Z,5.43
2023-05-20T07:30:04.254Z,5.70
2023-05-20T07:32:31.047Z,5.70
2023-05-20T07:34:57.784Z,6.73
2023-05-20T07:37:24.508Z,5.77
2023-05-20T07:39:51.320Z,5.47
2023-05-20T07:42:19.330Z,4.60
2023-05-20T07:44:46.074Z,5.67
2023-05-20T07:47:13.766Z,5.47
2023-05-20T07:49:40.486Z,5.00
2023-05-20T07:52:07.261Z,5.43
2023-05-20T07:54:34.726Z,5.03
2023-05-20T07:57:01.418Z,6.80
2023-05-20T07:59:29.462Z,6.90
2023-05-20T08:01:56.203Z,6.40
2023-05-20T08:04:23.007Z,5.17
2023-05-20T08:06:49.772Z,6.97
2023-05-20T08:09:16.501Z,5.27
2023-05-20T08:11:44.367Z,6.67
2023-05-20T08:14:12.452Z,7.50
2023-05-20T08:16:41.945Z,7.80
2023-05-20T08:19:08.861Z,7.40
2023-05-20T08:21:35.565Z,6.87
2023-05-20T08:24:02.429Z,6.10
2023-05-20T08:26:29.125Z,5.17
2023-05-20T08:28:55.807Z,6.37
2023-05-20T08:31:22.526Z,6.90
2023-05-20T08:33:50.541Z,8.03
2023-05-20T08:36:17.242Z,7.17
2023-05-20T08:38:43.941Z,7.50
2023-05-20T08:41:10.778Z,5.27
2023-05-20T08:43:37.952Z,7.30
2023-05-20T08:46:04.818Z,7.83
2023-05-20T08:48:33.292Z,7.50
2023-05-20T08:51:03.480Z,6.57
2023-05-20T08:53:30.706Z,7.47
2023-05-20T08:56:01.469Z,7.77
2023-05-20T08:58:28.723Z,5.00
2023-05-20T09:00:55.518Z,6.30
2023-05-20T09:03:22.236Z,8.00
2023-05-20T09:05:49.012Z,7.30
2023-05-20T09:08:17.090Z,4.80
2023-05-20T09:10:43.873Z,8.03
2023-05-20T09:13:11.441Z,5.37
2023-05-20T09:15:38.342Z,3.60
2023-05-20T09:18:07.696Z,7.50
2023-05-20T09:20:35.532Z,8.73
2023-05-20T09:23:03.802Z,7.57
2023-05-20T09:25:32.214Z,6.90
2023-05-20T09:27:59.104Z,6.67
2023-05-20T09:30:25.905Z,7.10
2023-05-20T09:32:56.096Z,7.37
2023-05-20T09:35:23.137Z,7.20
2023-05-20T09:37:53.154Z,7.07
2023-05-20T09:40:23.184Z,5.30
2023-05-20T09:42:54.054Z,7.67
2023-05-20T09:45:21.539Z,7.80
2023-05-20T09:47:50.699Z,6.40
2023-05-20T09:50:17.560Z,6.50
2023-05-20T09:52:44.444Z,7.20
2023-05-20T09:55:11.445Z,8.03
2023-05-20T09:57:38.552Z,7.20
2023-05-20T10:00:08.199Z,6.83
2023-05-20T10:02:36.041Z,7.97
2023-05-20T10:05:07.169Z,8.40
2023-05-20T10:08:06.481Z,7.57
2023-05-20T10:10:42.686Z,6.27
2023-05-20T10:13:18.487Z,7.43
2023-05-20T10:15:55.357Z,6.73
2023-05-20T10:18:36.798Z,8.17
2023-05-20T10:21:03.798Z,6.73
2023-05-20T10:23:31.143Z,8.53
2023-05-20T10:25:58.761Z,8.50
2023-05-20T10:28:29.740Z,9.30
2023-05-20T10:30:58.439Z,8.43
2023-05-20T10:33:26.453Z,8.33
2023-05-20T10:35:53.904Z,7.73
2023-05-20T10:38:20.913Z,8.40
2023-05-20T10:40:48.015Z,8.33
2023-05-20T10:43:16.185Z,7.40
2023-05-20T10:45:50.234Z,7.80
2023-05-20T10:48:29.229Z,7.90
2023-05-20T10:50:56.854Z,6.70
2023-05-20T10:53:33.678Z,8.90
2023-05-20T10:56:01.554Z,8.47
2023-05-20T10:58:36.037Z,8.37
2023-05-20T11:01:02.930Z,8.83
2023-05-20T11:03:31.706Z,7.70
2023-05-20T11:05:58.487Z,8.00
2023-05-20T11:08:29.784Z,4.00
2023-05-20T11:10:57.445Z,7.50
2023-05-20T11:13:25.594Z,8.73
2023-05-20T11:15:52.738Z,8.03
2023-05-20T11:18:19.495Z,7.90
2023-05-20T11:20:47.973Z,8.37
2023-05-20T11:23:15.696Z,7.53
2023-05-20T11:25:42.598Z,8.23
2023-05-20T11:28:12.357Z,5.93
2023-05-20T11:30:39.192Z,9.13
2023-05-20T11:33:05.979Z,7.33
2023-05-20T11:35:32.985Z,8.13
2023-05-20T11:38:04.346Z,8.60
2023-05-20T11:40:38.994Z,8.93
2023-05-20T11:43:14.408Z,7.87
2023-05-20T11:45:42.469Z,8.10
2023-05-20T11:48:09.843Z,7.67
2023-05-20T11:50:37.880Z,8.43
2023-05-20T11:53:07.320Z,7.93
2023-05-20T11:55:34.636Z,7.90
2023-05-20T11:58:02.960Z,7.67
2023-05-20T12:00:36.206Z,7.93
2023-05-20T12:03:10.047Z,7.23
2023-05-20T12:05:37.014Z,9.00
2023-05-20T12:08:05.957Z,7.47
2023-05-20T12:10:33.007Z,7.57
2023-05-20T12:13:00.278Z,6.30
2023-05-20T12:15:27.045Z,8.27
2023-05-20T12:17:54.326Z,8.50
2023-05-20T12:20:22.818Z,7.57
2023-05-20T12:22:50.018Z,6.70
2023-05-20T12:25:19.317Z,6.97
2023-05-20T12:27:48.212Z,7.67
2023-05-20T12:30:16.382Z,7.50
2023-05-20T12:32:43.430Z,8.10
2023-05-20T12:35:11.221Z,7.10
2023-05-20T12:37:38.667Z,6.37
2023-05-20T12:40:06.543Z,8.70
2023-05-20T12:42:34.987Z,6.20
2023-05-20T12:45:01.758Z,7.27
2023-05-20T12:47:28.653Z,5.20
2023-05-20T12:49:55.445Z,8.07
2023-05-20T12:52:23.023Z,9.17
2023-05-20T12:54:49.971Z,7.27
2023-05-20T12:57:16.848Z,6.80
2023-05-20T12:59:45.042Z,8.70
2023-05-20T13:02:11.864Z,7.13
2023-05-20T13:04:38.716Z,6.80
2023-05-20T13:07:05.702Z,7.00
2023-05-20T13:09:32.526Z,6.03
2023-05-20T13:11:59.352Z,7.13
2023-05-20T13:14:26.154Z,4.33
2023-05-20T13:16:54.307Z,6.77
2023-05-20T13:19:21.163Z,5.90
2023-05-20T13:21:48.036Z,6.43
2023-05-20T13:24:14.826Z,4.97
2023-05-20T13:26:41.734Z,4.40
2023-05-20T13:29:08.461Z,6.60
2023-05-20T13:31:35.302Z,5.70
2023-05-20T13:34:03.660Z,5.17
2023-05-20T13:36:30.442Z,4.63
2023-05-20T13:38:57.126Z,2.60
2023-05-20T13:41:24.374Z,5.60
2023-05-20T13:43:51.184Z,5.70
2023-05-20T13:46:18.086Z,3.70
2023-05-20T13:48:45.001Z,6.37
2023-05-20T13:51:13.134Z,3.63
2023-05-20T13:53:40.126Z,3.20
2023-05-20T13:56:07.166Z,2.97
2023-05-20T13:58:33.920Z,6.47
2023-05-20T14:01:00.729Z,6.43
2023-05-20T14:03:27.643Z,6.60
2023-05-20T14:05:54.639Z,6.03
2023-05-20T14:08:22.815Z,7.10
2023-05-20T14:10:49.501Z,6.27
2023-05-20T14:13:16.348Z,7.60
2023-05-20T14:15:43.093Z,2.90
2023-05-20T14:18:09.971Z,7.47
2023-05-20T14:20:37.120Z,6.37
2023-05-20T14:23:04.215Z,6.50
2023-05-20T14:25:32.331Z,6.47
2023-05-20T14:27:59.071Z,4.03
2023-05-20T14:30:25.801Z,2.10
2023-05-20T14:32:52.551Z,6.77
2023-05-20T14:35:19.420Z,7.30
2023-05-20T14:37:46.299Z,7.47
2023-05-20T14:40:13.555Z,6.57
2023-05-20T14:42:41.586Z,7.00
2023-05-20T14:45:09.572Z,7.00
2023-05-20T14:47:36.332Z,4.37
2023-05-20T14:50:03.260Z,4.73
2023-05-20T14:52:30.035Z,5.30
2023-05-20T14:54:56.734Z,7.37
2023-05-20T14:57:23.504Z,5.10
2023-05-20T14:59:51.594Z,4.20
2023-05-20T15:02:18.429Z,6.63
2023-05-20T15:04:45.327Z,6.43
2023-05-20T15:07:12.127Z,6.77
2023-05-20T15:09:38.847Z,6.17
2023-05-20T15:12:06.224Z,5.07
2023-05-20T15:14:32.920Z,6.07
2023-05-20T15:17:01.005Z,6.60
2023-05-20T15:19:28.475Z,7.70
2023-05-20T15:21:55.218Z,7.20
2023-05-20T15:24:21.981Z,7.93
2023-05-20T15:26:48.701Z,8.63
2023-05-20T15:29:15.458Z,6.43
2023-05-20T15:31:42.246Z,5.30
2023-05-20T15:34:10.388Z,6.03
2023-05-20T15:36:37.160Z,3.53
2023-05-20T15:39:04.025Z,5.90
2023-05-20T15:41:31.406Z,5.50
2023-05-20T15:43:58.125Z,7.07
2023-05-20T15:46:25.365Z,6.13
2023-05-20T15:48:52.107Z,5.27
2023-05-20T15:51:20.121Z,3.23
2023-05-20T15:53:46.825Z,4.03
2023-05-20T15:56:13.633Z,9.00
2023-05-20T15:58:40.441Z,3.10
2023-05-20T16:01:07.205Z,4.53
2023-05-20T16:03:34.005Z,9.20
2023-05-20T16:06:00.838Z,4.10
2023-05-20T16:08:28.881Z,8.53
2023-05-20T16:10:55.900Z,8.30
2023-05-20T16:13:22.707Z,8.50
2023-05-20T16:15:49.419Z,7.67
2023-05-20T16:18:16.289Z,5.50
2023-05-20T16:20:42.961Z,7.00
2023-05-20T16:23:09.662Z,6.67
2023-05-20T16:25:37.726Z,7.20
2023-05-20T16:28:04.437Z,6.90
2023-05-20T16:30:31.380Z,9.53
2023-05-20T16:32:58.116Z,6.37
2023-05-20T16:35:27.810Z,7.97
2023-05-20T16:37:54.514Z,6.47
2023-05-20T16:40:21.363Z,9.30
2023-05-20T16:42:49.376Z,4.50
2023-05-20T16:45:16.280Z,8.27
2023-05-20T16:47:43.095Z,8.50
2023-05-20T16:50:10.472Z,7.80
2023-05-20T16:52:37.280Z,8.10
2023-05-20T16:55:04.636Z,8.93
2023-05-20T16:57:31.405Z,7.83
2023-05-20T16:59:59.438Z,7.67
2023-05-20T17:02:26.342Z,8.20
2023-05-20T17:04:53.049Z,9.53
2023-05-20T17:07:19.813Z,9.10
2023-05-20T17:09:46.525Z,8.60
2023-05-20T17:12:13.399Z,8.57
2023-05-20T17:14:40.118Z,9.10
2023-05-20T17:17:08.301Z,8.47
2023-05-20T17:19:35.072Z,9.10
2023-05-20T17:22:01.852Z,7.83
2023-05-20T17:24:28.616Z,8.10
2023-05-20T17:26:55.334Z,8.50
2023-05-20T17:29:22.042Z,8.10
2023-05-20T17:31:48.754Z,8.60
2023-05-20T17:34:16.899Z,8.80
2023-05-20T17:36:43.789Z,8.27
2023-05-20T17:39:10.609Z,9.00
2023-05-20T17:41:37.362Z,8.43
2023-05-20T17:44:04.633Z,8.33
2023-05-20T17:46:31.391Z,8.10
2023-05-20T17:48:58.227Z,7.80
2023-05-20T17:51:26.352Z,8.10
2023-05-20T17:53:53.012Z,8.30
2023-05-20T17:56:19.933Z,8.10
2023-05-20T17:58:46.607Z,8.03
2023-05-20T18:01:13.412Z,8.40
2023-05-20T18:03:40.338Z,7.93
2023-05-20T18:06:07.324Z,8.47
2023-05-20T18:08:35.390Z,8.27
2023-05-20T18:11:02.145Z,7.87
2023-05-20T18:13:28.828Z,7.90
2023-05-20T18:15:55.573Z,7.80
2023-05-20T18:18:22.343Z,7.70
2023-05-20T18:20:49.058Z,8.03
2023-05-20T18:23:15.822Z,7.57
2023-05-20T18:25:44.084Z,7.63
2023-05-20T18:28:10.815Z,7.10
2023-05-20T18:30:37.681Z,7.63
2023-05-20T18:33:04.558Z,8.13
2023-05-20T18:35:31.298Z,8.60
2023-05-20T18:37:57.991Z,7.63
2023-05-20T18:40:24.699Z,7.40
2023-05-20T18:42:52.703Z,8.83
2023-05-20T18:45:19.375Z,8.80
2023-05-20T18:47:46.193Z,7.10
2023-05-20T18:50:12.971Z,8.00
2023-05-20T18:52:39.647Z,7.77
2023-05-20T18:55:07.567Z,7.27
2023-05-20T18:57:34.280Z,7.97
2023-05-20T19:00:02.323Z,7.43
2023-05-20T19:02:29.110Z,8.83
2023-05-20T19:04:55.881Z,7.40
2023-05-20T19:07:22.623Z,8.27
2023-05-20T19:09:49.469Z,7.30
2023-05-20T19:12:16.201Z,7.90
2023-05-20T19:14:42.997Z,8.00
2023-05-20T19:17:11.082Z,7.10
2023-05-20T19:19:37.814Z,7.90
2023-05-20T19:22:04.845Z,7.20
2023-05-20T19:24:31.664Z,8.27
2023-05-20T19:26:58.367Z,8.37
2023-05-20T19:29:25.127Z,8.30
2023-05-20T19:31:51.808Z,7.57
2023-05-20T19:34:19.824Z,7.63
2023-05-20T19:36:46.669Z,7.80
2023-05-20T19:39:13.746Z,7.37
2023-05-20T19:41:40.451Z,7.53
2023-05-20T19:44:08.201Z,7.10
2023-05-20T19:46:36.082Z,6.90
2023-05-20T19:49:02.887Z,8.47
2023-05-20T19:51:30.951Z,8.30
2023-05-20T19:53:57.695Z,8.50
2023-05-20T19:56:24.486Z,7.50
2023-05-20T19:58:51.392Z,7.57
2023-05-20T20:01:18.148Z,7.80
2023-05-20T20:03:44.962Z,7.60
2023-05-20T20:06:12.317Z,7.60
2023-05-20T20:08:40.440Z,7.20
2023-05-20T20:11:07.583Z,8.10
2023-05-20T20:13:34.383Z,9.10
2023-05-20T20:16:01.133Z,9.50
2023-05-20T20:18:27.901Z,8.83
2023-05-20T20:20:54.938Z,10.03
2023-05-20T20:23:21.640Z,10.10
2023-05-20T20:25:49.703Z,8.93
2023-05-20T20:28:16.605Z,9.40
2023-05-20T20:30:43.368Z,8.33
2023-05-20T20:33:10.225Z,8.83
2023-05-20T20:35:37.332Z,8.93
2023-05-20T20:38:04.324Z,8.20
2023-05-20T20:40:31.091Z,9.83
2023-05-20T20:42:59.165Z,9.30
2023-05-20T20:45:25.832Z,11.03
2023-05-20T20:47:52.639Z,10.20
2023-05-20T20:50:19.403Z,9.47
2023-05-20T20:52:46.132Z,7.70
2023-05-20T20:55:12.900Z,8.00
2023-05-20T20:57:39.653Z,8.37
2023-05-20T21:00:08.972Z,7.03
2023-05-20T21:02:35.717Z,7.43
2023-05-20T21:05:02.440Z,7.03
2023-05-20T21:07:29.273Z,7.87
2023-05-20T21:09:56.066Z,7.10
2023-05-20T21:12:22.785Z,7.63
2023-05-20T21:14:49.686Z,7.33
2023-05-20T21:17:17.749Z,7.30
2023-05-20T21:19:44.518Z,7.03
2023-05-20T21:22:11.308Z,7.10
2023-05-20T21:24:38.122Z,8.10
2023-05-20T21:27:05.198Z,7.57
2023-05-20T21:29:32.294Z,7.70
2023-05-20T21:31:59.041Z,7.87
2023-05-20T21:34:27.100Z,8.40
2023-05-20T21:36:53.856Z,7.73
2023-05-20T21:39:20.605Z,8.63
2023-05-20T21:41:47.305Z,8.00
2023-05-20T21:44:14.105Z,7.00
2023-05-20T21:46:40.956Z,9.60
2023-05-20T21:49:07.825Z,8.30
2023-05-20T21:51:35.867Z,8.50
2023-05-20T21:54:02.584Z,8.57
2023-05-20T21:56:29.339Z,7.13
2023-05-20T21:58:56.076Z,7.50
2023-05-20T22:01:22.880Z,8.53
2023-05-20T22:03:51.540Z,8.30
2023-05-20T22:06:18.985Z,7.80
2023-05-20T22:08:47.140Z,8.30
2023-05-20T22:11:13.920Z,8.47
2023-05-20T22:13:40.605Z,7.83
2023-05-20T22:16:08.541Z,8.07
2023-05-20T22:18:35.667Z,7.20
2023-05-20T22:21:02.343Z,7.10
2023-05-20T22:23:29.233Z,8.77
2023-05-20T22:25:57.445Z,7.20
2023-05-20T22:28:24.286Z,8.80
2023-05-20T22:30:51.109Z,7.60
2023-05-20T22:33:17.806Z,7.90
2023-05-20T22:35:44.526Z,7.20
2023-05-20T22:38:11.258Z,7.80
2023-05-20T22:40:37.941Z,7.70
2023-05-20T22:43:06.009Z,8.63
2023-05-20T22:45:32.832Z,7.60
2023-05-20T22:47:59.736Z,8.87
2023-05-20T22:50:26.543Z,9.57
2023-05-20T22:52:53.334Z,8.87
2023-05-20T22:55:20.080Z,8.70
2023-05-20T22:57:46.805Z,8.57
2023-05-20T23:00:15.712Z,7.00
2023-05-20T23:02:42.463Z,6.37
2023-05-20T23:05:09.217Z,8.20
2023-05-20T23:07:35.941Z,7.70
2023-05-20T23:10:02.726Z,7.63
2023-05-20T23:12:29.471Z,8.93
2023-05-20T23:14:56.275Z,8.73
2023-05-20T23:17:24.403Z,10.20
2023-05-20T23:19:51.174Z,9.13
2023-05-20T23:22:17.940Z,8.00
2023-05-20T23:24:44.634Z,7.00
2023-05-20T23:27:11.452Z,6.77
2023-05-20T23:29:38.281Z,8.07
2023-05-20T23:32:05.572Z,8.27
2023-05-20T23:34:33.634Z,8.70
2023-05-20T23:37:00.333Z,8.57
2023-05-20T23:39:27.073Z,8.70
2023-05-20T23:41:53.778Z,8.80
2023-05-20T23:44:20.451Z,9.97
2023-05-20T23:46:47.145Z,7.20
2023-05-20T23:49:13.835Z,9.53
2023-05-20T23:51:41.848Z,8.87
2023-05-20T23:54:08.558Z,7.80
2023-05-20T23:56:35.231Z,7.77
2023-05-20T23:59:01.901Z,7.13
